createdAt,value
2022-12-01T00:02:01.288Z,41.67
2022-12-01T00:04:28.426Z,40.65
2022-12-01T00:06:55.456Z,45.63
2022-12-01T00:09:41.354Z,44.53
2022-12-01T00:12:08.375Z,44.17
2022-12-01T00:14:35.414Z,47.08
2022-12-01T00:17:02.446Z,42.75
2022-12-01T00:19:29.469Z,45.70
2022-12-01T00:21:56.570Z,48.65
2022-12-01T00:24:24.534Z,46.92
2022-12-01T00:26:51.627Z,47.03
2022-12-01T00:29:18.762Z,45.78
2022-12-01T00:31:45.878Z,47.50
2022-12-01T00:34:21.593Z,49.88
2022-12-01T00:36:48.672Z,52.20
2022-12-01T00:39:15.782Z,44.72
2022-12-01T00:41:42.864Z,45.35
2022-12-01T00:44:09.966Z,42.10
2022-12-01T00:46:37.014Z,47.75
2022-12-01T00:49:04.156Z,50.60
2022-12-01T00:51:31.221Z,47.63
2022-12-01T00:53:58.386Z,51.05
2022-12-01T00:56:25.463Z,50.00
2022-12-01T00:58:52.513Z,56.28
2022-12-01T01:01:20.139Z,53.00
2022-12-01T01:03:47.310Z,58.38
2022-12-01T01:06:14.352Z,55.97
2022-12-01T01:08:41.481Z,52.80
2022-12-01T01:11:09.082Z,52.67
2022-12-01T01:13:36.295Z,52.05
2022-12-01T01:16:04.125Z,57.75
2022-12-01T01:18:31.238Z,62.45
2022-12-01T01:21:05.965Z,53.50
2022-12-01T01:23:33.045Z,59.85
2022-12-01T01:26:09.400Z,54.85
2022-12-01T01:28:36.528Z,53.90
2022-12-01T01:31:07.026Z,57.30
2022-12-01T01:36:01.272Z,58.15
2022-12-01T01:38:28.612Z,77.03
2022-12-01T01:40:55.726Z,82.47
2022-12-01T01:43:41.954Z,73.13
2022-12-01T01:46:12.769Z,61.47
2022-12-01T01:48:39.913Z,68.82
2022-12-01T01:51:07.118Z,68.35
2022-12-01T01:53:34.132Z,74.72
2022-12-01T01:56:01.138Z,81.55
2022-12-01T01:58:28.269Z,74.43
2022-12-01T02:00:55.345Z,55.83
2022-12-01T02:03:22.583Z,49.28
2022-12-01T02:05:49.621Z,41.90
2022-12-01T02:08:16.647Z,36.83
2022-12-01T02:11:02.043Z,36.40
2022-12-01T02:13:38.074Z,35.63
2022-12-01T02:16:20.189Z,36.30
2022-12-01T02:18:53.237Z,35.65
2022-12-01T02:21:23.092Z,46.70
2022-12-01T02:24:08.704Z,40.85
2022-12-01T02:26:47.012Z,41.13
2022-12-01T02:29:37.430Z,37.80
2022-12-01T02:32:24.734Z,39.92
2022-12-01T02:34:57.696Z,39.78
2022-12-01T02:37:25.817Z,35.50
2022-12-01T02:40:02.723Z,34.00
2022-12-01T02:42:51.811Z,37.35
2022-12-01T02:45:29.657Z,33.90
2022-12-01T02:47:57.137Z,29.88
2022-12-01T02:50:24.138Z,30.90
2022-12-01T02:52:51.239Z,32.33
2022-12-01T02:55:18.348Z,33.60
2022-12-01T02:57:45.425Z,38.53
2022-12-01T03:00:13.703Z,32.83
2022-12-01T03:02:43.924Z,32.97
2022-12-01T03:05:12.789Z,35.63
2022-12-01T03:07:40.456Z,35.63
2022-12-01T03:10:19.451Z,32.70
2022-12-01T03:12:49.565Z,32.60
2022-12-01T03:15:19.549Z,33.53
2022-12-01T03:18:07.010Z,31.52
2022-12-01T03:20:44.509Z,29.15
2022-12-01T03:23:13.214Z,33.55
2022-12-01T03:25:40.894Z,31.27
2022-12-01T03:28:24.594Z,33.67
2022-12-01T03:30:51.946Z,35.63
2022-12-01T03:33:21.850Z,38.85
2022-12-01T03:35:48.899Z,38.05
2022-12-01T03:38:18.485Z,31.42
2022-12-01T03:40:45.958Z,33.92
2022-12-01T03:43:14.505Z,31.48
2022-12-01T03:45:44.044Z,35.20
2022-12-01T03:48:11.092Z,34.67
2022-12-01T03:50:56.688Z,29.83
2022-12-01T03:53:24.878Z,34.10
2022-12-01T03:55:53.060Z,40.35
2022-12-01T03:58:28.257Z,33.22
2022-12-01T04:00:57.619Z,31.95
2022-12-01T04:03:25.132Z,34.80
2022-12-01T04:05:52.291Z,39.83
2022-12-01T04:08:19.369Z,34.20
2022-12-01T04:10:46.434Z,37.83
2022-12-01T04:13:22.596Z,36.78
2022-12-01T04:15:58.486Z,36.78
2022-12-01T04:18:25.543Z,36.35
2022-12-01T04:20:52.620Z,37.08
2022-12-01T04:23:38.570Z,40.28
2022-12-01T04:26:05.754Z,35.95
2022-12-01T04:28:32.827Z,37.63
2022-12-01T04:30:59.987Z,36.05
2022-12-01T04:33:27.050Z,39.22
2022-12-01T04:36:00.247Z,36.97
2022-12-01T04:38:30.540Z,37.55
2022-12-01T04:40:58.003Z,32.78
2022-12-01T04:43:25.111Z,35.03
2022-12-01T04:45:52.191Z,39.78
2022-12-01T04:48:19.261Z,39.10
2022-12-01T04:50:46.347Z,45.25
2022-12-01T04:53:13.407Z,40.13
2022-12-01T04:55:40.451Z,39.85
2022-12-01T04:58:07.501Z,44.60
2022-12-01T05:00:34.568Z,41.85
2022-12-01T05:03:01.939Z,38.63
2022-12-01T05:05:29.213Z,38.42
2022-12-01T05:07:56.428Z,44.13
2022-12-01T05:10:23.632Z,39.75
2022-12-01T05:12:50.901Z,40.35
2022-12-01T05:15:18.034Z,41.53
2022-12-01T05:17:45.174Z,41.80
2022-12-01T05:20:48.838Z,45.15
2022-12-01T05:23:17.170Z,45.75
2022-12-01T05:25:44.403Z,42.38
2022-12-01T05:28:11.507Z,46.60
2022-12-01T05:30:38.590Z,45.47
2022-12-01T05:33:05.614Z,40.55
2022-12-01T05:35:33.883Z,46.17
2022-12-01T05:38:06.077Z,40.97
2022-12-01T05:40:34.741Z,43.83
2022-12-01T05:43:01.876Z,46.40
2022-12-01T05:45:28.997Z,46.75
2022-12-01T05:47:56.649Z,45.17
2022-12-01T05:50:24.095Z,44.70
2022-12-01T05:52:51.178Z,43.38
2022-12-01T05:55:18.343Z,47.55
2022-12-01T05:57:45.464Z,45.35
2022-12-01T06:00:13.083Z,50.10
2022-12-01T06:02:40.709Z,46.38
2022-12-01T06:05:08.140Z,48.42
2022-12-01T06:07:35.744Z,47.00
2022-12-01T06:10:02.957Z,49.85
2022-12-01T06:12:30.038Z,49.45
2022-12-01T06:14:57.055Z,48.25
2022-12-01T06:17:24.139Z,45.55
2022-12-01T06:19:51.452Z,46.08
2022-12-01T06:22:18.743Z,45.08
2022-12-01T06:24:45.767Z,51.95
2022-12-01T06:27:12.782Z,48.80
2022-12-01T06:29:42.229Z,51.88
2022-12-01T06:32:09.799Z,48.00
2022-12-01T06:34:36.886Z,52.33
2022-12-01T06:37:03.874Z,56.92
2022-12-01T06:39:30.920Z,49.33
2022-12-01T06:41:57.907Z,48.55
2022-12-01T06:44:24.899Z,48.92
2022-12-01T06:46:52.913Z,47.60
2022-12-01T06:49:20.124Z,53.40
2022-12-01T06:51:47.412Z,44.08
2022-12-01T06:54:15.155Z,48.17
2022-12-01T06:56:43.165Z,54.90
2022-12-01T06:59:10.399Z,52.28
2022-12-01T07:01:37.621Z,56.97
2022-12-01T07:04:04.774Z,50.72
2022-12-01T07:06:31.923Z,54.95
2022-12-01T07:08:58.987Z,53.90
2022-12-01T07:11:26.013Z,52.10
2022-12-01T07:13:55.675Z,49.60
2022-12-01T07:16:23.038Z,54.97
2022-12-01T07:18:50.215Z,49.58
2022-12-01T07:21:17.200Z,50.65
2022-12-01T07:23:44.247Z,57.10
2022-12-01T07:26:15.248Z,56.15
2022-12-01T07:28:42.451Z,55.13
2022-12-01T07:31:13.896Z,49.05
2022-12-01T07:33:41.318Z,51.63
2022-12-01T07:36:08.751Z,52.10
2022-12-01T07:38:35.887Z,54.60
2022-12-01T07:41:06.466Z,52.72
2022-12-01T07:46:06.746Z,56.53
2022-12-01T07:48:33.895Z,54.22
2022-12-01T07:51:00.969Z,55.20
2022-12-01T07:53:28.000Z,60.35
2022-12-01T07:55:55.181Z,52.35
2022-12-01T07:58:22.191Z,45.55
2022-12-01T08:00:49.209Z,49.40
2022-12-01T08:03:16.308Z,48.70
2022-12-01T08:05:43.379Z,42.97
2022-12-01T08:08:10.451Z,44.75
2022-12-01T08:10:37.539Z,43.30
2022-12-01T08:13:04.837Z,41.00
2022-12-01T08:15:31.940Z,35.83
2022-12-01T08:18:01.283Z,40.45
2022-12-01T08:20:28.360Z,38.45
2022-12-01T08:22:55.485Z,37.95
2022-12-01T08:25:22.514Z,42.33
2022-12-01T08:27:49.541Z,37.50
2022-12-01T08:30:16.664Z,41.72
2022-12-01T08:32:43.633Z,42.00
2022-12-01T08:35:10.715Z,39.70
2022-12-01T08:37:37.738Z,41.67
2022-12-01T08:40:04.973Z,44.05
2022-12-01T08:42:32.004Z,42.00
2022-12-01T08:44:59.092Z,41.13
2022-12-01T08:47:27.915Z,42.85
2022-12-01T08:49:54.966Z,42.88
2022-12-01T08:52:21.999Z,40.45
2022-12-01T08:54:49.055Z,41.42
2022-12-01T08:57:16.091Z,39.85
2022-12-01T08:59:44.399Z,41.70
2022-12-01T09:02:15.015Z,42.05
2022-12-01T09:04:42.095Z,46.53
2022-12-01T09:07:10.038Z,40.58
2022-12-01T09:09:37.177Z,36.28
2022-12-01T09:12:04.305Z,35.45
2022-12-01T09:14:31.428Z,38.65
2022-12-01T09:16:58.517Z,37.70
2022-12-01T09:19:25.557Z,37.47
2022-12-01T09:21:52.743Z,39.97
2022-12-01T09:24:19.852Z,37.50
2022-12-01T09:26:47.097Z,40.10
2022-12-01T09:29:14.795Z,37.25
2022-12-01T09:31:42.579Z,42.78
2022-12-01T09:34:11.700Z,42.10
2022-12-01T09:36:38.704Z,36.78
2022-12-01T09:39:06.458Z,36.45
2022-12-01T09:41:34.960Z,38.47
2022-12-01T09:44:10.583Z,38.15
2022-12-01T09:46:40.724Z,39.65
2022-12-01T09:49:09.679Z,42.22
2022-12-01T09:51:37.544Z,35.80
2022-12-01T09:54:04.685Z,44.30
2022-12-01T09:56:37.064Z,34.38
2022-12-01T09:59:07.226Z,38.42
2022-12-01T10:01:36.208Z,38.80
2022-12-01T10:04:06.521Z,35.30
2022-12-01T10:06:37.967Z,35.85
2022-12-01T10:09:24.785Z,37.10
2022-12-01T10:11:52.428Z,37.40
2022-12-01T10:14:20.746Z,36.92
2022-12-01T10:17:06.665Z,37.55
2022-12-01T10:19:54.010Z,38.95
2022-12-01T10:22:27.279Z,37.05
2022-12-01T10:24:55.458Z,38.17
2022-12-01T10:27:41.401Z,37.13
2022-12-01T10:30:11.806Z,38.80
2022-12-01T10:32:58.240Z,34.95
2022-12-01T10:35:29.079Z,37.67
2022-12-01T10:37:58.018Z,39.40
2022-12-01T10:40:25.073Z,40.85
2022-12-01T10:42:52.264Z,46.60
2022-12-01T10:45:24.398Z,37.53
2022-12-01T10:48:10.330Z,38.83
2022-12-01T10:50:37.561Z,40.90
2022-12-01T10:53:05.833Z,33.25
2022-12-01T10:55:33.886Z,28.95
2022-12-01T10:58:06.159Z,30.67
2022-12-01T11:03:27.850Z,31.15
2022-12-01T11:05:58.936Z,31.60
2022-12-01T11:08:44.993Z,32.90
2022-12-01T11:11:30.699Z,28.48
2022-12-01T11:13:58.034Z,28.42
2022-12-01T11:16:34.219Z,26.05
2022-12-01T11:19:26.973Z,32.75
2022-12-01T11:21:55.633Z,31.67
2022-12-01T11:24:25.883Z,27.85
2022-12-01T11:26:52.899Z,28.05
2022-12-01T11:29:36.126Z,32.17
2022-12-01T11:32:05.302Z,32.15
2022-12-01T11:34:34.341Z,29.42
2022-12-01T11:37:02.370Z,28.50
2022-12-01T11:39:32.343Z,27.25
2022-12-01T11:42:04.471Z,29.90
2022-12-01T11:47:25.597Z,31.27
2022-12-01T11:49:59.568Z,30.23
2022-12-01T11:52:32.895Z,29.10
2022-12-01T11:57:51.957Z,32.80
2022-12-01T12:00:23.104Z,34.75
2022-12-01T12:02:57.346Z,33.42
2022-12-01T12:05:42.666Z,29.35
2022-12-01T12:08:13.110Z,30.75
2022-12-01T12:10:40.129Z,33.00
2022-12-01T12:13:16.020Z,31.85
2022-12-01T12:16:08.719Z,31.27
2022-12-01T12:18:48.662Z,33.67
2022-12-01T12:21:20.617Z,33.97
2022-12-01T12:23:58.254Z,30.63
2022-12-01T12:26:32.791Z,31.90
2022-12-01T12:29:14.251Z,30.42
2022-12-01T12:31:50.524Z,33.08
2022-12-01T12:34:25.204Z,34.28
2022-12-01T12:36:55.278Z,35.88
2022-12-01T12:39:30.442Z,31.52
2022-12-01T12:41:57.490Z,33.85
2022-12-01T12:44:43.507Z,33.83
2022-12-01T12:47:29.457Z,32.25
2022-12-01T12:50:00.378Z,34.03
2022-12-01T12:52:30.063Z,34.80
2022-12-01T12:54:57.086Z,33.43
2022-12-01T12:57:27.355Z,34.45
2022-12-01T12:59:57.769Z,32.15
2022-12-01T13:02:39.618Z,32.47
2022-12-01T13:05:30.173Z,29.98
2022-12-01T13:08:01.940Z,34.10
2022-12-01T13:10:37.994Z,32.92
2022-12-01T13:13:23.947Z,31.52
2022-12-01T13:15:51.260Z,31.02
2022-12-01T13:18:37.083Z,33.70
2022-12-01T13:21:04.652Z,31.02
2022-12-01T13:23:31.772Z,35.35
2022-12-01T13:25:59.371Z,33.15
2022-12-01T13:28:30.339Z,31.50
2022-12-01T13:31:15.950Z,30.40
2022-12-01T13:33:45.927Z,31.40
2022-12-01T13:36:45.129Z,29.45
2022-12-01T13:39:00.918Z,30.70
2022-12-01T13:41:34.428Z,33.85
2022-12-01T13:44:20.410Z,31.95
2022-12-01T13:46:47.503Z,34.33
2022-12-01T13:49:33.871Z,34.97
2022-12-01T13:52:19.755Z,30.50
2022-12-01T13:55:05.552Z,33.58
2022-12-01T13:57:32.925Z,34.25
2022-12-01T13:59:59.902Z,35.97
2022-12-01T14:02:36.625Z,35.75
2022-12-01T14:05:22.715Z,34.75
2022-12-01T14:07:50.424Z,35.60
2022-12-01T14:10:22.268Z,35.88
2022-12-01T14:12:49.275Z,33.47
2022-12-01T14:15:30.726Z,40.13
2022-12-01T14:18:05.180Z,34.22
2022-12-01T14:20:33.391Z,38.03
2022-12-01T14:23:04.724Z,35.55
2022-12-01T14:25:31.766Z,38.72
2022-12-01T14:28:00.116Z,38.67
2022-12-01T14:30:44.682Z,36.88
2022-12-01T14:33:30.792Z,42.53
2022-12-01T14:36:00.924Z,34.20
2022-12-01T14:38:27.927Z,41.80
2022-12-01T14:40:54.912Z,39.53
2022-12-01T14:43:40.288Z,37.50
2022-12-01T14:46:08.033Z,37.90
2022-12-01T14:48:38.945Z,41.33
2022-12-01T14:51:24.909Z,37.53
2022-12-01T14:53:51.895Z,40.67
2022-12-01T14:56:19.524Z,43.63
2022-12-01T14:58:59.815Z,43.88
2022-12-01T15:01:30.935Z,41.17
2022-12-01T15:03:58.734Z,46.30
2022-12-01T15:06:26.460Z,45.35
2022-12-01T15:12:00.936Z,45.95
2022-12-01T15:14:32.191Z,50.08
2022-12-01T15:16:59.343Z,55.45
2022-12-01T15:19:30.711Z,44.60
2022-12-01T15:21:57.859Z,48.38
2022-12-01T15:24:25.718Z,45.40
2022-12-01T15:27:02.164Z,47.38
2022-12-01T15:29:31.436Z,52.83
2022-12-01T15:32:00.092Z,49.40
2022-12-01T15:34:31.515Z,49.42
2022-12-01T15:36:58.854Z,55.28
2022-12-01T15:39:36.070Z,52.47
2022-12-01T15:42:03.316Z,46.97
2022-12-01T15:44:31.356Z,52.42
2022-12-01T15:46:58.448Z,52.67
2022-12-01T15:49:27.673Z,54.42
2022-12-01T15:51:54.835Z,50.05
2022-12-01T15:54:23.470Z,53.05
2022-12-01T15:56:56.835Z,65.00
2022-12-01T15:59:28.484Z,53.95
2022-12-01T16:01:56.735Z,53.53
2022-12-01T16:04:24.898Z,54.28
2022-12-01T16:06:53.580Z,55.15
2022-12-01T16:09:22.444Z,49.45
2022-12-01T16:12:08.056Z,51.15
2022-12-01T16:14:35.440Z,56.10
2022-12-01T16:17:02.651Z,48.58
2022-12-01T16:19:30.720Z,53.72
2022-12-01T16:21:59.325Z,55.63
2022-12-01T16:24:30.818Z,57.03
2022-12-01T16:26:59.836Z,55.15
2022-12-01T16:29:27.162Z,54.90
2022-12-01T16:34:48.452Z,55.08
2022-12-01T16:37:15.495Z,59.65
2022-12-01T16:39:42.651Z,55.67
2022-12-01T16:42:12.287Z,54.78
2022-12-01T16:44:39.389Z,57.73
2022-12-01T16:47:16.974Z,54.88
2022-12-01T16:49:44.122Z,61.22
2022-12-01T16:54:58.425Z,57.92
2022-12-01T16:57:25.443Z,55.22
2022-12-01T16:59:52.421Z,52.33
2022-12-01T17:02:19.535Z,53.60
2022-12-01T17:04:46.558Z,54.63
2022-12-01T17:07:13.637Z,54.22
2022-12-01T17:09:40.734Z,52.88
2022-12-01T17:12:07.819Z,56.33
2022-12-01T17:14:34.856Z,52.05
2022-12-01T17:17:01.930Z,61.95
2022-12-01T17:19:28.954Z,53.95
2022-12-01T17:21:56.865Z,52.85
2022-12-01T17:24:25.775Z,54.80
2022-12-01T17:26:52.809Z,66.82
2022-12-01T17:29:19.873Z,68.40
2022-12-01T17:31:46.967Z,68.40
2022-12-01T17:34:14.023Z,64.97
2022-12-01T17:36:41.611Z,54.33
2022-12-01T17:39:08.687Z,57.35
2022-12-01T17:41:36.089Z,61.08
2022-12-01T17:44:06.140Z,67.43
2022-12-01T17:46:33.303Z,63.10
2022-12-01T17:49:00.459Z,77.10
2022-12-01T17:51:27.642Z,68.05
2022-12-01T17:53:56.020Z,70.53
2022-12-01T17:56:23.007Z,68.40
2022-12-01T17:58:51.265Z,70.82
2022-12-01T18:01:18.954Z,64.22
2022-12-01T18:03:46.138Z,62.72
2022-12-01T18:06:13.270Z,62.42
2022-12-01T18:08:40.384Z,69.05
2022-12-01T18:11:09.745Z,64.82
2022-12-01T18:13:40.342Z,61.05
2022-12-01T18:18:34.349Z,66.70
2022-12-01T18:21:04.541Z,71.03
2022-12-01T18:23:31.736Z,64.55
2022-12-01T18:26:00.038Z,59.55
2022-12-01T18:28:27.023Z,61.28
2022-12-01T18:30:54.136Z,65.50
2022-12-01T18:33:21.195Z,66.80
2022-12-01T18:35:48.204Z,63.58
2022-12-01T18:38:15.292Z,63.05
2022-12-01T18:40:42.330Z,64.40
2022-12-01T18:43:09.415Z,63.50
2022-12-01T18:45:39.862Z,65.70
2022-12-01T18:48:10.632Z,71.97
2022-12-01T18:50:37.880Z,74.60
2022-12-01T18:53:04.967Z,67.38
2022-12-01T18:55:32.027Z,62.50
2022-12-01T18:57:59.114Z,63.95
2022-12-01T19:00:26.258Z,63.88
2022-12-01T19:02:53.330Z,67.15
2022-12-01T19:05:20.582Z,66.32
2022-12-01T19:07:47.967Z,65.10
2022-12-01T19:10:15.082Z,65.95
2022-12-01T19:12:42.102Z,65.03
2022-12-01T19:15:09.493Z,64.80
2022-12-01T19:17:36.479Z,69.57
2022-12-01T19:20:04.651Z,68.43
2022-12-01T19:22:32.090Z,69.97
2022-12-01T19:24:59.109Z,63.53
2022-12-01T19:27:26.219Z,63.17
2022-12-01T19:29:53.837Z,64.18
2022-12-01T19:32:21.178Z,63.03
2022-12-01T19:34:48.671Z,64.32
2022-12-01T19:37:15.979Z,71.90
2022-12-01T19:39:43.038Z,67.13
2022-12-01T19:42:10.074Z,68.68
2022-12-01T19:44:37.147Z,63.90
2022-12-01T19:47:04.234Z,65.13
2022-12-01T19:49:31.309Z,67.03
2022-12-01T19:51:58.457Z,62.22
2022-12-01T19:54:25.661Z,64.38
2022-12-01T19:56:52.692Z,70.22
2022-12-01T19:59:19.706Z,74.30
2022-12-01T20:01:46.863Z,65.35
2022-12-01T20:04:13.949Z,69.72
2022-12-01T20:06:40.997Z,74.53
2022-12-01T20:09:08.097Z,65.57
2022-12-01T20:11:35.472Z,65.53
2022-12-01T20:14:03.251Z,72.50
2022-12-01T20:16:33.182Z,76.43
2022-12-01T20:19:01.318Z,74.68
2022-12-01T20:21:32.186Z,81.38
2022-12-01T20:24:00.269Z,73.93
2022-12-01T20:26:30.556Z,71.25
2022-12-01T20:31:26.342Z,62.35
2022-12-01T20:33:53.787Z,64.85
2022-12-01T20:36:20.796Z,68.78
2022-12-01T20:38:47.916Z,72.07
2022-12-01T20:41:15.060Z,69.45
2022-12-01T20:43:42.204Z,71.88
2022-12-01T20:46:09.407Z,75.18
2022-12-01T20:48:36.522Z,70.97
2022-12-01T20:51:04.225Z,71.13
2022-12-01T20:53:31.352Z,67.82
2022-12-01T20:55:58.412Z,66.07
2022-12-01T20:58:25.453Z,66.30
2022-12-01T21:00:52.715Z,63.85
2022-12-01T21:03:19.813Z,62.53
2022-12-01T21:05:46.858Z,64.30
2022-12-01T21:08:24.364Z,66.53
2022-12-01T21:10:51.401Z,74.32
2022-12-01T21:13:38.072Z,68.47
2022-12-01T21:16:19.195Z,64.32
2022-12-01T21:18:46.417Z,68.60
2022-12-01T21:21:20.706Z,68.80
2022-12-01T21:23:48.149Z,63.70
2022-12-01T21:26:19.026Z,68.65
2022-12-01T21:28:46.288Z,61.50
2022-12-01T21:31:16.672Z,73.38
2022-12-01T21:33:43.836Z,65.00
2022-12-01T21:36:17.857Z,71.13
2022-12-01T21:38:45.054Z,75.65
2022-12-01T21:41:25.049Z,68.88
2022-12-01T21:43:52.399Z,67.50
2022-12-01T21:46:19.667Z,65.10
2022-12-01T21:48:46.764Z,61.75
2022-12-01T21:51:20.942Z,58.80
2022-12-01T21:53:48.732Z,61.45
2022-12-01T21:56:17.255Z,62.83
2022-12-01T22:06:33.292Z,59.53
2022-12-01T22:08:51.758Z,59.10
2022-12-01T22:11:19.840Z,53.42
2022-12-01T22:14:25.487Z,56.90
2022-12-01T22:16:55.255Z,54.75
2022-12-01T22:19:28.203Z,59.45
2022-12-01T22:22:00.723Z,51.45
2022-12-01T22:24:35.389Z,53.88
2022-12-01T22:27:23.686Z,53.92
2022-12-01T22:29:55.031Z,54.47
2022-12-01T22:32:29.995Z,55.55
2022-12-01T22:34:57.676Z,52.13
2022-12-01T22:37:37.196Z,59.03
2022-12-01T22:40:07.041Z,64.10
2022-12-01T22:42:35.490Z,57.13
2022-12-01T22:45:15.707Z,56.00
2022-12-01T22:47:42.938Z,62.25
2022-12-01T22:50:28.587Z,58.30
2022-12-01T22:53:06.975Z,59.05
2022-12-01T22:55:34.116Z,63.72
2022-12-01T22:58:20.729Z,57.85
2022-12-01T23:00:49.352Z,66.88
2022-12-01T23:03:19.769Z,57.88
2022-12-01T23:08:17.449Z,59.35
2022-12-01T23:13:16.357Z,59.65
2022-12-01T23:15:47.219Z,56.63
2022-12-01T23:18:14.871Z,63.00
2022-12-01T23:20:44.426Z,57.67
2022-12-01T23:23:13.863Z,60.88
2022-12-01T23:25:41.128Z,63.97
2022-12-01T23:28:08.687Z,55.22
2022-12-01T23:30:36.048Z,64.35
2022-12-01T23:33:06.883Z,65.28
2022-12-01T23:35:34.545Z,59.70
2022-12-01T23:38:04.340Z,54.67
2022-12-01T23:40:33.620Z,57.35
2022-12-01T23:43:10.808Z,60.90
2022-12-01T23:45:43.501Z,57.72
2022-12-01T23:48:17.454Z,57.97
2022-12-01T23:50:50.607Z,58.17
2022-12-01T23:53:54.239Z,63.20
2022-12-01T23:56:22.025Z,59.47
2022-12-01T23:58:49.165Z,56.17
